createdAt,value
2017-08-27T00:00:18.192Z,99004.85
2017-08-27T00:02:45.694Z,99004.52
2017-08-27T00:05:13.156Z,99001.98
2017-08-27T00:07:40.750Z,99005.67
2017-08-27T00:10:08.213Z,99008.25
2017-08-27T00:12:35.692Z,99012.28
2017-08-27T00:15:03.197Z,98998.48
2017-08-27T00:17:31.242Z,99001.33
2017-08-27T00:19:58.824Z,98995.39
2017-08-27T00:22:26.345Z,98998.63
2017-08-27T00:24:53.851Z,99000.02
2017-08-27T00:27:21.962Z,99001.11
2017-08-27T00:29:49.566Z,98985.80
2017-08-27T00:32:17.076Z,99000.87
2017-08-27T00:34:44.568Z,99002.31
2017-08-27T00:37:12.057Z,98994.38
2017-08-27T00:39:39.555Z,98993.17
2017-08-27T00:42:07.044Z,98999.03
2017-08-27T00:44:34.830Z,99004.72
2017-08-27T00:47:02.399Z,99003.26
2017-08-27T00:49:35.050Z,99001.89
2017-08-27T00:52:02.550Z,98994.29
2017-08-27T00:54:30.026Z,98995.44
2017-08-27T00:57:08.269Z,98990.15
2017-08-27T00:59:40.642Z,98990.81
2017-08-27T01:02:08.232Z,98993.03
2017-08-27T01:04:35.699Z,98985.94
2017-08-27T01:07:03.367Z,98989.34
2017-08-27T01:09:30.943Z,98990.15
2017-08-27T01:11:59.399Z,98987.91
2017-08-27T01:14:26.919Z,98988.14
2017-08-27T01:16:54.393Z,98988.58
2017-08-27T01:19:28.952Z,98989.01
2017-08-27T01:22:04.785Z,98979.86
2017-08-27T01:24:44.682Z,98981.38
2017-08-27T01:27:18.997Z,98978.59
2017-08-27T01:29:53.229Z,98626.17
2017-08-27T01:32:28.598Z,98980.47
2017-08-27T01:34:57.478Z,98982.21
2017-08-27T01:37:36.253Z,98981.65
2017-08-27T01:40:03.849Z,98980.10
2017-08-27T01:42:31.358Z,98975.42
2017-08-27T01:45:03.619Z,98977.80
2017-08-27T01:47:39.974Z,98974.00
2017-08-27T01:50:11.068Z,98975.89
2017-08-27T01:52:41.028Z,98977.22
2017-08-27T01:55:09.203Z,98985.35
2017-08-27T01:57:40.281Z,98984.41
2017-08-27T02:00:07.772Z,98984.27
2017-08-27T02:02:35.292Z,98973.36
2017-08-27T02:05:02.783Z,98975.59
2017-08-27T02:07:33.559Z,98978.42
2017-08-27T02:10:02.786Z,98981.41
2017-08-27T02:12:30.241Z,98969.11
2017-08-27T02:15:19.595Z,98970.67
2017-08-27T02:20:43.783Z,98971.72
2017-08-27T02:23:11.293Z,98973.77
2017-08-27T02:25:38.798Z,98977.37
2017-08-27T02:28:06.270Z,98974.56
2017-08-27T02:30:33.767Z,98971.58
2017-08-27T02:33:01.246Z,98983.14
2017-08-27T02:35:28.750Z,98984.84
2017-08-27T02:37:56.208Z,98984.55
2017-08-27T02:40:23.677Z,98982.22
2017-08-27T02:42:51.191Z,98985.05
2017-08-27T02:45:18.692Z,98988.41
2017-08-27T02:47:46.192Z,98985.98
2017-08-27T02:52:40.437Z,98987.34
2017-08-27T02:55:07.912Z,98959.34
2017-08-27T02:57:35.402Z,98978.69
2017-08-27T03:00:02.896Z,98975.28
2017-08-27T03:02:30.371Z,98957.67
2017-08-27T03:04:57.861Z,98962.11
2017-08-27T03:07:25.368Z,98964.89
2017-08-27T03:09:52.863Z,98975.72
2017-08-27T03:12:20.328Z,98976.94
2017-08-27T03:14:47.830Z,98978.36
2017-08-27T03:17:15.314Z,98981.93
2017-08-27T03:19:42.823Z,98977.13
2017-08-27T03:22:10.808Z,98979.69
2017-08-27T03:24:38.292Z,98990.22
2017-08-27T03:27:05.811Z,98981.66
2017-08-27T03:29:33.279Z,98976.12
2017-08-27T03:32:00.800Z,98990.91
2017-08-27T03:34:28.298Z,98989.14
2017-08-27T03:36:55.809Z,98995.78
2017-08-27T03:39:23.275Z,98987.89
2017-08-27T03:41:50.733Z,98987.69
2017-08-27T03:44:18.253Z,98995.45
2017-08-27T03:46:46.327Z,99008.95
2017-08-27T03:49:13.819Z,99006.65
2017-08-27T03:51:41.292Z,99008.87
2017-08-27T03:54:08.791Z,99011.52
2017-08-27T03:56:36.278Z,99012.06
2017-08-27T03:59:03.773Z,99018.87
2017-08-27T04:01:31.278Z,99019.63
2017-08-27T04:03:58.763Z,99024.20
2017-08-27T04:06:26.304Z,99020.19
2017-08-27T04:08:53.803Z,99008.17
2017-08-27T04:11:22.278Z,99018.02
2017-08-27T04:13:49.769Z,99008.87
2017-08-27T04:16:17.234Z,99010.44
2017-08-27T04:18:44.749Z,99012.88
2017-08-27T04:21:12.204Z,99007.20
2017-08-27T04:23:39.828Z,99019.75
2017-08-27T04:26:07.294Z,99010.37
2017-08-27T04:28:34.764Z,99012.87
2017-08-27T04:31:02.259Z,99008.61
2017-08-27T04:33:29.728Z,99002.15
2017-08-27T04:35:57.248Z,99008.56
2017-08-27T04:38:24.718Z,99015.09
2017-08-27T04:40:52.266Z,99019.05
2017-08-27T04:43:19.729Z,99027.34
2017-08-27T04:45:47.223Z,99035.05
2017-08-27T04:48:14.716Z,99036.55
2017-08-27T04:50:42.178Z,99040.95
2017-08-27T04:53:09.677Z,99049.94
2017-08-27T04:55:37.144Z,99043.02
2017-08-27T04:58:04.625Z,99034.32
2017-08-27T05:00:32.077Z,99029.61
2017-08-27T05:02:59.682Z,99033.31
2017-08-27T05:05:27.191Z,99010.87
2017-08-27T05:07:54.682Z,99027.88
2017-08-27T05:10:23.356Z,99025.14
2017-08-27T05:12:50.953Z,99012.20
2017-08-27T05:15:18.434Z,99017.30
2017-08-27T05:17:45.926Z,99025.28
2017-08-27T05:20:13.424Z,99031.52
2017-08-27T05:22:40.915Z,99028.91
2017-08-27T05:25:08.418Z,99022.66
2017-08-27T05:27:35.883Z,99033.00
2017-08-27T05:30:03.374Z,99043.48
2017-08-27T05:32:30.847Z,99036.61
2017-08-27T05:34:58.340Z,99034.32
2017-08-27T05:37:25.853Z,99039.20
2017-08-27T05:39:54.164Z,99043.01
2017-08-27T05:42:21.677Z,99060.88
2017-08-27T05:44:49.135Z,99046.86
2017-08-27T05:47:16.640Z,99043.45
2017-08-27T05:49:44.118Z,99047.81
2017-08-27T05:52:12.359Z,99015.03
2017-08-27T05:54:39.829Z,99049.23
2017-08-27T05:57:08.018Z,99051.89
2017-08-27T05:59:35.485Z,99047.37
2017-08-27T06:02:03.014Z,99043.41
2017-08-27T06:04:30.509Z,99045.85
2017-08-27T06:06:57.986Z,99042.42
2017-08-27T06:09:25.487Z,99051.94
2017-08-27T06:11:53.338Z,99046.55
2017-08-27T06:14:20.825Z,99048.15
2017-08-27T06:16:48.285Z,99045.38
2017-08-27T06:19:15.785Z,99036.50
2017-08-27T06:21:43.251Z,99039.02
2017-08-27T06:24:10.739Z,99039.86
2017-08-27T06:26:38.238Z,99044.95
2017-08-27T06:29:05.733Z,99044.48
2017-08-27T06:31:33.210Z,99039.53
2017-08-27T06:34:00.693Z,99043.69
2017-08-27T06:36:28.200Z,99048.28
2017-08-27T06:38:55.658Z,99046.08
2017-08-27T06:41:23.151Z,99048.92
2017-08-27T06:43:50.630Z,99048.51
2017-08-27T06:46:18.118Z,99050.80
2017-08-27T06:48:45.579Z,99051.64
2017-08-27T06:51:13.075Z,99059.84
2017-08-27T06:53:40.595Z,99047.42
2017-08-27T06:56:08.071Z,99066.92
2017-08-27T06:58:35.557Z,99072.11
2017-08-27T07:01:03.038Z,99075.55
2017-08-27T07:03:30.568Z,99077.64
2017-08-27T07:05:58.049Z,99083.90
2017-08-27T07:08:25.529Z,99087.15
2017-08-27T07:10:53.012Z,99082.88
2017-08-27T07:13:20.482Z,99086.44
2017-08-27T07:15:47.996Z,99086.44
2017-08-27T07:18:15.479Z,99091.93
2017-08-27T07:20:42.988Z,99095.83
2017-08-27T07:23:10.452Z,99098.67
2017-08-27T07:25:37.988Z,99092.78
2017-08-27T07:28:05.460Z,99100.13
2017-08-27T07:30:32.962Z,99098.67
2017-08-27T07:33:00.459Z,99098.57
2017-08-27T07:35:27.963Z,99098.87
2017-08-27T07:37:55.434Z,99101.41
2017-08-27T07:40:22.919Z,99092.67
2017-08-27T07:42:50.418Z,99092.17
2017-08-27T07:45:17.891Z,99088.37
2017-08-27T07:47:45.429Z,99080.44
2017-08-27T07:50:12.906Z,99079.30
2017-08-27T07:52:40.404Z,99086.02
2017-08-27T07:55:07.901Z,99087.70
2017-08-27T07:57:35.416Z,99086.00
2017-08-27T08:00:03.593Z,99087.20
2017-08-27T08:02:32.038Z,99094.30
2017-08-27T08:04:59.502Z,99088.74
2017-08-27T08:07:27.151Z,99096.28
2017-08-27T08:09:54.621Z,99094.00
2017-08-27T08:12:22.103Z,99089.03
2017-08-27T08:14:49.603Z,99091.67
2017-08-27T08:17:17.061Z,99100.23
2017-08-27T08:19:44.581Z,99094.48
2017-08-27T08:22:12.062Z,99098.62
2017-08-27T08:24:39.535Z,99083.80
2017-08-27T08:27:07.756Z,99108.41
2017-08-27T08:29:35.254Z,99108.63
2017-08-27T08:32:02.782Z,99105.48
2017-08-27T08:34:30.285Z,99101.09
2017-08-27T08:36:58.696Z,99054.96
2017-08-27T08:39:26.186Z,99110.11
2017-08-27T08:41:53.673Z,99112.25
2017-08-27T08:44:21.131Z,99109.44
2017-08-27T08:46:50.581Z,99109.55
2017-08-27T08:49:18.192Z,99115.39
2017-08-27T08:51:45.690Z,99117.68
2017-08-27T08:54:13.170Z,99123.45
2017-08-27T08:56:40.675Z,99122.16
2017-08-27T08:59:08.179Z,99128.05
2017-08-27T09:01:35.705Z,99079.94
2017-08-27T09:04:03.187Z,99115.06
2017-08-27T09:06:30.682Z,99114.69
2017-08-27T09:08:58.190Z,99123.41
2017-08-27T09:11:25.669Z,99114.83
2017-08-27T09:13:53.164Z,99116.38
2017-08-27T09:16:20.655Z,99101.30
2017-08-27T09:18:48.217Z,99112.34
2017-08-27T09:21:15.677Z,99114.16
2017-08-27T09:23:43.184Z,99110.32
2017-08-27T09:26:10.686Z,99113.38
2017-08-27T09:28:38.185Z,99119.94
2017-08-27T09:31:05.711Z,99117.70
2017-08-27T09:33:33.201Z,99116.71
2017-08-27T09:36:00.689Z,99113.34
2017-08-27T09:38:28.149Z,99114.37
2017-08-27T09:40:55.644Z,99117.89
2017-08-27T09:43:23.178Z,99120.80
2017-08-27T09:45:50.682Z,99116.28
2017-08-27T09:48:18.171Z,99124.02
2017-08-27T09:50:45.670Z,99122.69
2017-08-27T09:53:13.165Z,99122.36
2017-08-27T09:55:40.650Z,99122.51
2017-08-27T09:58:08.143Z,99131.45
2017-08-27T10:00:35.647Z,99132.95
2017-08-27T10:03:03.162Z,99134.66
2017-08-27T10:05:31.349Z,99132.55
2017-08-27T10:07:58.833Z,99131.82
2017-08-27T10:10:26.354Z,99141.30
2017-08-27T10:12:53.864Z,99152.30
2017-08-27T10:15:21.357Z,99157.58
2017-08-27T10:17:48.839Z,99153.67
2017-08-27T10:20:16.349Z,99153.71
2017-08-27T10:22:43.811Z,99148.15
2017-08-27T10:25:11.395Z,99147.92
2017-08-27T10:27:38.841Z,99160.23
2017-08-27T10:30:06.331Z,99149.84
2017-08-27T10:32:33.818Z,99146.24
2017-08-27T10:35:01.333Z,99143.80
2017-08-27T10:37:29.525Z,99139.28
2017-08-27T10:39:57.027Z,99141.55
2017-08-27T10:42:25.249Z,99129.59
2017-08-27T10:44:52.800Z,99125.92
2017-08-27T10:47:20.295Z,99118.46
2017-08-27T10:49:47.804Z,99117.25
2017-08-27T10:52:15.302Z,99114.05
2017-08-27T10:54:42.815Z,99105.01
2017-08-27T10:57:11.231Z,99106.98
2017-08-27T10:59:38.884Z,99096.30
2017-08-27T11:02:06.391Z,99097.06
2017-08-27T11:04:33.869Z,99086.67
2017-08-27T11:07:01.387Z,99100.51
2017-08-27T11:09:28.870Z,99106.39
2017-08-27T11:11:56.368Z,99109.34
2017-08-27T11:14:23.830Z,99111.13
2017-08-27T11:16:51.396Z,99106.96
2017-08-27T11:19:18.862Z,99093.31
2017-08-27T11:21:46.327Z,99106.13
2017-08-27T11:24:13.858Z,99102.88
2017-08-27T11:26:41.424Z,99102.94
2017-08-27T11:29:08.934Z,99087.66
2017-08-27T11:31:36.429Z,99091.78
2017-08-27T11:34:04.639Z,99093.61
2017-08-27T11:36:32.152Z,99091.53
2017-08-27T11:38:59.642Z,99087.93
2017-08-27T11:41:27.536Z,99088.02
2017-08-27T11:43:55.039Z,99072.69
2017-08-27T11:46:22.562Z,99091.69
2017-08-27T11:48:50.415Z,99085.38
2017-08-27T11:51:17.925Z,99088.77
2017-08-27T11:53:45.406Z,99089.02
2017-08-27T11:56:12.944Z,99089.16
2017-08-27T11:58:40.426Z,99095.66
2017-08-27T12:01:07.958Z,99095.59
2017-08-27T12:03:35.433Z,99089.79
2017-08-27T12:06:02.925Z,99096.17
2017-08-27T12:08:30.410Z,99090.92
2017-08-27T12:10:57.883Z,99094.37
2017-08-27T12:13:25.375Z,99092.53
2017-08-27T12:15:52.859Z,99100.19
2017-08-27T12:18:20.350Z,99092.47
2017-08-27T12:20:47.841Z,99092.77
2017-08-27T12:23:15.366Z,99089.80
2017-08-27T12:25:42.892Z,99089.44
2017-08-27T12:28:11.226Z,99082.81
2017-08-27T12:30:38.781Z,99079.65
2017-08-27T12:33:06.252Z,99052.70
2017-08-27T12:35:33.789Z,99053.59
2017-08-27T12:38:01.259Z,99065.32
2017-08-27T12:40:28.782Z,99060.69
2017-08-27T12:42:56.247Z,99061.67
2017-08-27T12:45:23.788Z,99040.31
2017-08-27T12:47:51.295Z,99063.58
2017-08-27T12:50:18.807Z,99056.23
2017-08-27T12:52:46.307Z,99054.18
2017-08-27T12:55:13.786Z,99056.20
2017-08-27T12:57:42.164Z,99057.73
2017-08-27T13:00:11.070Z,99058.91
2017-08-27T13:02:38.759Z,99054.58
2017-08-27T13:05:06.428Z,99058.91
2017-08-27T13:07:34.056Z,99058.65
2017-08-27T13:10:01.536Z,99060.42
2017-08-27T13:12:29.020Z,99049.16
2017-08-27T13:14:56.519Z,99063.17
2017-08-27T13:17:24.027Z,99069.24
2017-08-27T13:19:51.543Z,99067.09
2017-08-27T13:22:19.041Z,99068.79
2017-08-27T13:24:46.543Z,99070.55
2017-08-27T13:27:14.014Z,99074.81
2017-08-27T13:29:41.526Z,99078.72
2017-08-27T13:32:08.989Z,99084.42
2017-08-27T13:34:36.476Z,99082.72
2017-08-27T13:37:03.947Z,99089.77
2017-08-27T13:39:31.438Z,99086.45
2017-08-27T13:41:58.919Z,99084.28
2017-08-27T13:44:26.459Z,99085.28
2017-08-27T13:46:54.656Z,99085.45
2017-08-27T13:49:22.194Z,99083.12
2017-08-27T13:51:49.717Z,99084.50
2017-08-27T13:54:17.214Z,99083.41
2017-08-27T13:56:44.721Z,99079.08
2017-08-27T13:59:12.213Z,99068.47
2017-08-27T14:01:39.734Z,99069.16
2017-08-27T14:04:07.219Z,99070.33
2017-08-27T14:06:34.726Z,99066.11
2017-08-27T14:09:02.203Z,99064.19
2017-08-27T14:11:29.723Z,99064.81
2017-08-27T14:13:57.186Z,99075.28
2017-08-27T14:16:24.674Z,99072.39
2017-08-27T14:18:52.392Z,99074.16
2017-08-27T14:21:19.908Z,99065.19
2017-08-27T14:23:47.413Z,99064.63
2017-08-27T14:26:14.877Z,99068.50
2017-08-27T14:28:42.375Z,99073.20
2017-08-27T14:31:09.880Z,99065.36
2017-08-27T14:33:37.441Z,99065.12
2017-08-27T14:36:05.421Z,99056.92
2017-08-27T14:38:32.929Z,99062.20
2017-08-27T14:41:00.389Z,99059.30
2017-08-27T14:43:27.885Z,99060.09
2017-08-27T14:45:55.375Z,99059.66
2017-08-27T14:48:22.850Z,99065.28
2017-08-27T14:50:50.395Z,99054.36
2017-08-27T14:53:17.887Z,99057.54
2017-08-27T14:55:45.500Z,99050.99
2017-08-27T14:58:12.987Z,99054.28
2017-08-27T15:00:40.479Z,99049.95
2017-08-27T15:03:08.075Z,99049.48
2017-08-27T15:05:36.519Z,99047.92
2017-08-27T15:08:04.041Z,99052.72
2017-08-27T15:10:31.525Z,99050.59
2017-08-27T15:12:59.047Z,99052.07
2017-08-27T15:15:26.522Z,99045.94
2017-08-27T15:17:54.878Z,99052.94
2017-08-27T15:20:22.413Z,99057.03
2017-08-27T15:22:49.910Z,99042.04
2017-08-27T15:25:17.403Z,99050.77
2017-08-27T15:27:45.424Z,99051.53
2017-08-27T15:30:14.221Z,99049.75
2017-08-27T15:32:41.988Z,99040.22
2017-08-27T15:35:09.532Z,99041.03
2017-08-27T15:37:37.013Z,99032.05
2017-08-27T15:40:04.518Z,99034.09
2017-08-27T15:42:32.015Z,99040.52
2017-08-27T15:44:59.556Z,99028.08
2017-08-27T15:47:27.914Z,99035.95
2017-08-27T15:49:55.412Z,99035.58
2017-08-27T15:52:22.934Z,99039.64
2017-08-27T15:54:50.437Z,99029.88
2017-08-27T15:57:17.960Z,99017.55
2017-08-27T15:59:45.492Z,99024.98
2017-08-27T16:02:13.059Z,99020.59
2017-08-27T16:04:40.536Z,99025.28
2017-08-27T16:07:08.065Z,99019.39
2017-08-27T16:09:35.563Z,99032.58
2017-08-27T16:12:03.090Z,99031.17
2017-08-27T16:14:30.618Z,99029.20
2017-08-27T16:16:58.141Z,99019.58
2017-08-27T16:19:25.656Z,99032.28
2017-08-27T16:21:53.200Z,99037.71
2017-08-27T16:24:20.689Z,99034.61
2017-08-27T16:26:48.211Z,99033.66
2017-08-27T16:29:15.787Z,99040.05
2017-08-27T16:31:43.258Z,99033.63
2017-08-27T16:34:10.787Z,99038.52
2017-08-27T16:36:38.269Z,99042.80
2017-08-27T16:39:05.797Z,99042.59
2017-08-27T16:41:33.329Z,99040.83
2017-08-27T16:44:00.861Z,99046.69
2017-08-27T16:46:28.372Z,99041.45
2017-08-27T16:48:56.586Z,99042.98
2017-08-27T16:51:24.129Z,99040.84
2017-08-27T16:53:51.647Z,99038.90
2017-08-27T16:56:23.147Z,99038.08
2017-08-27T16:58:50.658Z,99046.13
2017-08-27T17:01:19.019Z,99057.41
2017-08-27T17:03:46.511Z,99055.48
2017-08-27T17:06:14.049Z,99052.34
2017-08-27T17:08:41.500Z,99056.97
2017-08-27T17:11:09.029Z,99054.81
2017-08-27T17:13:36.506Z,99059.88
2017-08-27T17:16:04.009Z,99056.16
2017-08-27T17:18:31.539Z,99055.16
2017-08-27T17:20:58.994Z,99056.19
2017-08-27T17:23:26.496Z,99004.23
2017-08-27T17:25:53.968Z,99051.73
2017-08-27T17:28:21.472Z,99049.13
2017-08-27T17:30:48.980Z,99050.55
2017-08-27T17:33:16.481Z,99049.81
2017-08-27T17:35:44.111Z,99053.81
2017-08-27T17:38:11.600Z,99056.30
2017-08-27T17:40:39.090Z,99060.09
2017-08-27T17:43:06.610Z,99064.22
2017-08-27T17:45:34.136Z,99061.58
2017-08-27T17:48:01.638Z,99067.09
2017-08-27T17:50:29.153Z,99067.27
2017-08-27T17:52:56.629Z,99079.71
2017-08-27T17:55:24.154Z,99074.92
2017-08-27T17:57:51.641Z,99081.09
2017-08-27T18:00:19.319Z,99081.88
2017-08-27T18:02:46.810Z,99080.89
2017-08-27T18:05:14.316Z,99080.73
2017-08-27T18:07:41.855Z,99085.30
2017-08-27T18:10:10.333Z,99087.28
2017-08-27T18:12:37.827Z,99087.00
2017-08-27T18:15:05.295Z,99088.92
2017-08-27T18:17:32.824Z,99091.72
2017-08-27T18:20:00.318Z,99106.20
2017-08-27T18:22:27.843Z,99100.25
2017-08-27T18:24:55.332Z,99104.53
2017-08-27T18:27:22.882Z,99110.86
2017-08-27T18:29:50.506Z,99107.75
2017-08-27T18:32:17.973Z,99097.17
2017-08-27T18:34:45.595Z,99106.77
2017-08-27T18:37:13.792Z,99112.20
2017-08-27T18:39:41.282Z,99113.60
2017-08-27T18:42:08.853Z,99122.73
2017-08-27T18:44:36.354Z,99121.70
2017-08-27T18:47:06.916Z,99130.89
2017-08-27T18:49:34.406Z,99136.35
2017-08-27T18:52:01.932Z,99140.43
2017-08-27T18:54:29.465Z,99142.83
2017-08-27T18:56:56.960Z,99126.23
2017-08-27T18:59:24.479Z,99146.98
2017-08-27T19:01:52.293Z,99146.64
2017-08-27T19:04:19.806Z,99157.17
2017-08-27T19:06:47.332Z,99155.78
2017-08-27T19:09:14.902Z,99164.53
2017-08-27T19:11:42.509Z,99164.27
2017-08-27T19:14:09.988Z,99173.39
2017-08-27T19:16:37.494Z,99175.50
2017-08-27T19:19:05.041Z,99179.75
2017-08-27T19:21:43.965Z,99185.22
2017-08-27T19:24:11.455Z,99188.06
2017-08-27T19:26:39.528Z,99194.16
2017-08-27T19:29:07.018Z,99191.30
2017-08-27T19:31:34.491Z,99200.91
2017-08-27T19:34:01.989Z,99201.13
2017-08-27T19:36:29.515Z,99203.21
2017-08-27T19:38:57.070Z,99201.69
2017-08-27T19:41:25.660Z,99202.09
2017-08-27T19:43:53.198Z,99197.02
2017-08-27T19:46:20.729Z,99193.45
2017-08-27T19:48:48.258Z,99203.30
2017-08-27T19:51:15.739Z,99201.42
2017-08-27T19:53:48.110Z,99192.64
2017-08-27T19:56:15.594Z,99190.25
2017-08-27T19:58:43.083Z,99196.97
2017-08-27T20:01:10.587Z,99191.56
2017-08-27T20:03:38.093Z,99188.27
2017-08-27T20:06:05.609Z,99191.33
2017-08-27T20:08:33.083Z,99187.23
2017-08-27T20:11:00.715Z,99184.78
2017-08-27T20:13:28.222Z,99191.94
2017-08-27T20:15:55.792Z,99195.91
2017-08-27T20:18:29.841Z,99197.34
2017-08-27T20:20:57.349Z,99203.30
2017-08-27T20:23:24.827Z,99157.19
2017-08-27T20:25:52.327Z,99209.59
2017-08-27T20:28:19.845Z,99197.62
2017-08-27T20:30:47.426Z,99206.36
2017-08-27T20:33:25.579Z,99203.30
2017-08-27T20:35:53.116Z,99202.14
2017-08-27T20:38:20.613Z,99204.76
2017-08-27T20:40:48.073Z,99198.73
2017-08-27T20:43:15.572Z,99200.37
2017-08-27T20:45:43.045Z,99202.67
2017-08-27T20:48:10.553Z,99209.25
2017-08-27T20:50:38.078Z,99207.34
2017-08-27T20:53:05.574Z,99204.96
2017-08-27T20:55:33.129Z,99209.37
2017-08-27T20:58:00.625Z,99210.63
2017-08-27T21:00:28.134Z,99208.78
2017-08-27T21:02:57.802Z,99206.07
2017-08-27T21:05:25.312Z,99205.19
2017-08-27T21:07:52.857Z,99190.93
2017-08-27T21:10:20.769Z,99197.70
2017-08-27T21:12:48.306Z,99187.01
2017-08-27T21:15:15.807Z,99201.03
2017-08-27T21:17:43.551Z,99201.89
2017-08-27T21:20:11.019Z,99197.73
2017-08-27T21:22:38.525Z,99192.00
2017-08-27T21:25:06.002Z,99199.48
2017-08-27T21:27:33.890Z,99196.91
2017-08-27T21:30:01.357Z,99191.71
2017-08-27T21:32:28.884Z,99187.40
2017-08-27T21:34:56.347Z,99181.14
2017-08-27T21:37:23.875Z,99183.05
2017-08-27T21:39:51.362Z,99179.66
2017-08-27T21:42:20.316Z,99185.95
2017-08-27T21:44:47.831Z,99190.66
2017-08-27T21:47:17.710Z,99191.56
2017-08-27T21:49:45.248Z,99190.27
2017-08-27T21:52:12.793Z,99198.96
2017-08-27T21:54:40.312Z,99196.05
2017-08-27T21:57:08.490Z,99191.38
2017-08-27T21:59:35.971Z,99194.73
2017-08-27T22:02:04.026Z,99197.42
2017-08-27T22:04:31.526Z,99199.05
2017-08-27T22:06:59.761Z,99203.66
2017-08-27T22:09:27.242Z,99205.26
2017-08-27T22:11:54.819Z,99211.28
2017-08-27T22:14:22.338Z,99202.61
2017-08-27T22:16:49.803Z,99209.98
2017-08-27T22:19:17.308Z,99208.22
2017-08-27T22:21:44.806Z,99214.73
2017-08-27T22:24:12.335Z,99214.77
2017-08-27T22:26:39.852Z,99220.41
2017-08-27T22:29:07.346Z,99217.40
2017-08-27T22:31:38.395Z,99223.68
2017-08-27T22:34:06.597Z,99221.09
2017-08-27T22:36:34.069Z,99217.94
2017-08-27T22:39:01.538Z,99218.83
2017-08-27T22:41:29.044Z,99229.41
2017-08-27T22:44:07.283Z,99228.83
2017-08-27T22:46:34.787Z,99222.47
2017-08-27T22:49:02.253Z,99228.80
2017-08-27T22:51:29.769Z,99230.66
2017-08-27T22:53:57.262Z,99229.47
2017-08-27T22:56:24.778Z,99230.91
2017-08-27T22:58:52.286Z,99228.22
2017-08-27T23:01:20.138Z,99238.58
2017-08-27T23:03:47.600Z,99232.31
2017-08-27T23:06:15.092Z,99239.85
2017-08-27T23:08:42.607Z,99234.24
2017-08-27T23:11:10.078Z,99230.73
2017-08-27T23:13:37.628Z,99228.33
2017-08-27T23:16:05.094Z,99229.86
2017-08-27T23:18:32.624Z,99228.42
2017-08-27T23:21:00.132Z,99228.69
2017-08-27T23:23:27.639Z,99225.60
2017-08-27T23:25:55.155Z,99225.73
2017-08-27T23:28:22.738Z,99222.23
2017-08-27T23:30:50.229Z,99217.04
2017-08-27T23:33:17.711Z,99221.05
2017-08-27T23:35:45.245Z,99216.59
2017-08-27T23:38:12.820Z,99217.44
2017-08-27T23:40:40.350Z,99216.98
2017-08-27T23:43:07.847Z,99214.09
2017-08-27T23:45:35.358Z,99217.19
2017-08-27T23:48:10.003Z,99215.00
2017-08-27T23:50:37.671Z,99219.78
2017-08-27T23:53:05.471Z,99159.17
2017-08-27T23:55:32.930Z,99216.28
2017-08-27T23:58:00.441Z,99218.45
